EWG4L LEPA-EDDH
Flight info
| Callsign | EWG4L |
|---|---|
| Flight time | 2h 15m |
| Altitude | 36000 |
| Route | MEROS N853 LUMAS DCT MAXIR DCT LUSOL DCT BODRU DCT OKTET DCT IRMAR DCT KINES DCT VANAS DCT MOBLO DCT UBIMA DCT SOSAL DCT KORED DCT BERSU N871 DITON/N0434F370 DCT LOKTA DCT TEDGO DCT HAREM DCT LOHRE DCT ELNAT/N0429F360 P605 NOLGO NOLGO6A |
| Aircraft | A320/M-SDE3FGHIRWY/LB1 |
Departure
| Time | 2026-05-05 12:03 |
|---|---|
| Airport | Palma de Mallorca Airport (LEPA) |
Arrival
| Time | 2026-05-05 14:18 |
|---|---|
| Airport | Hamburg Helmut Schmidt Airport (EDDH) |
| Time | Latitude | Longitude | Altitude | Speed | Heading |
|---|---|---|---|---|---|
| 2026-05-05 11:34 | 39.55041 | 2.73537 | 39 ft | 0 kts | 165° |
| 2026-05-05 11:50 | 39.55060 | 2.73530 | 38 ft | 4 kts | 165° |
| 2026-05-05 11:50 | 39.55083 | 2.73522 | 34 ft | 2 kts | 165° |
| 2026-05-05 11:50 | 39.55106 | 2.73509 | 37 ft | 4 kts | 134° |
| 2026-05-05 11:50 | 39.55117 | 2.73482 | 37 ft | 4 kts | 89° |
| 2026-05-05 11:51 | 39.55111 | 2.73451 | 38 ft | 4 kts | 59° |
| 2026-05-05 11:51 | 39.55097 | 2.73421 | 35 ft | 4 kts | 59° |
| 2026-05-05 11:51 | 39.55094 | 2.73415 | 37 ft | 0 kts | 59° |
| 2026-05-05 11:53 | 39.55099 | 2.73425 | 37 ft | 4 kts | 59° |
| 2026-05-05 11:54 | 39.55122 | 2.73475 | 38 ft | 7 kts | 59° |
| 2026-05-05 11:54 | 39.55144 | 2.73523 | 38 ft | 5 kts | 59° |
| 2026-05-05 11:54 | 39.55161 | 2.73559 | 38 ft | 4 kts | 59° |
| 2026-05-05 11:54 | 39.55176 | 2.73590 | 38 ft | 4 kts | 59° |
| 2026-05-05 11:55 | 39.55183 | 2.73620 | 38 ft | 3 kts | 87° |
| 2026-05-05 11:55 | 39.55174 | 2.73636 | 38 ft | 2 kts | 137° |
| 2026-05-05 11:55 | 39.55166 | 2.73663 | 38 ft | 6 kts | 94° |
| 2026-05-05 11:55 | 39.55182 | 2.73705 | 38 ft | 4 kts | 62° |
| 2026-05-05 11:56 | 39.55180 | 2.73735 | 38 ft | 4 kts | 114° |
| 2026-05-05 11:56 | 39.55162 | 2.73764 | 38 ft | 5 kts | 111° |
| 2026-05-05 11:56 | 39.55172 | 2.73803 | 38 ft | 4 kts | 60° |
| 2026-05-05 11:56 | 39.55193 | 2.73824 | 38 ft | 6 kts | 15° |
| 2026-05-05 11:57 | 39.55252 | 2.73792 | 38 ft | 13 kts | 328° |
| 2026-05-05 11:57 | 39.55348 | 2.73715 | 38 ft | 17 kts | 328° |
| 2026-05-05 11:57 | 39.55454 | 2.73632 | 38 ft | 18 kts | 329° |
| 2026-05-05 11:57 | 39.55564 | 2.73544 | 37 ft | 17 kts | 328° |
| 2026-05-05 11:58 | 39.55623 | 2.73505 | 38 ft | 6 kts | 343° |
| 2026-05-05 11:58 | 39.55660 | 2.73515 | 38 ft | 6 kts | 39° |
| 2026-05-05 11:58 | 39.55699 | 2.73592 | 37 ft | 15 kts | 58° |
| 2026-05-05 11:58 | 39.55770 | 2.73745 | 37 ft | 22 kts | 58° |
| 2026-05-05 11:59 | 39.55847 | 2.73907 | 38 ft | 20 kts | 58° |
| 2026-05-05 11:59 | 39.55917 | 2.74054 | 38 ft | 18 kts | 59° |
| 2026-05-05 11:59 | 39.55979 | 2.74187 | 38 ft | 17 kts | 59° |
| 2026-05-05 11:59 | 39.56036 | 2.74308 | 38 ft | 15 kts | 59° |
| 2026-05-05 12:00 | 39.56087 | 2.74414 | 37 ft | 11 kts | 56° |
| 2026-05-05 12:00 | 39.56139 | 2.74455 | 38 ft | 8 kts | 7° |
| 2026-05-05 12:00 | 39.56186 | 2.74435 | 37 ft | 6 kts | 329° |
| 2026-05-05 12:00 | 39.56220 | 2.74408 | 38 ft | 5 kts | 328° |
| 2026-05-05 12:01 | 39.56244 | 2.74385 | 38 ft | 4 kts | 319° |
| 2026-05-05 12:01 | 39.56257 | 2.74358 | 38 ft | 4 kts | 290° |
| 2026-05-05 12:01 | 39.56253 | 2.74319 | 38 ft | 5 kts | 245° |
| 2026-05-05 12:01 | 39.56234 | 2.74280 | 38 ft | 6 kts | 237° |
| 2026-05-05 12:02 | 39.56212 | 2.74233 | 36 ft | 7 kts | 238° |
| 2026-05-05 12:02 | 39.56115 | 2.74028 | 38 ft | 59 kts | 238° |
| 2026-05-05 12:02 | 39.55791 | 2.73344 | 38 ft | 117 kts | 238° |
| 2026-05-05 12:02 | 39.55278 | 2.72265 | 62 ft | 160 kts | 239° |
| 2026-05-05 12:03 | 39.54690 | 2.71016 | 645 ft | 163 kts | 237° |
| 2026-05-05 12:03 | 39.54105 | 2.69744 | 1385 ft | 165 kts | 237° |
| 2026-05-05 12:03 | 39.53507 | 2.68463 | 2004 ft | 171 kts | 238° |
| 2026-05-05 12:03 | 39.52858 | 2.67083 | 2257 ft | 193 kts | 237° |
| 2026-05-05 12:04 | 39.52120 | 2.65532 | 2593 ft | 209 kts | 237° |
| 2026-05-05 12:04 | 39.51345 | 2.63907 | 3278 ft | 213 kts | 237° |
| 2026-05-05 12:04 | 39.50566 | 2.62279 | 4023 ft | 212 kts | 237° |
| 2026-05-05 12:04 | 39.49643 | 2.60741 | 4551 ft | 226 kts | 219° |
| 2026-05-05 12:05 | 39.48208 | 2.59667 | 4873 ft | 249 kts | 207° |
| 2026-05-05 12:05 | 39.46620 | 2.58661 | 5486 ft | 258 kts | 207° |
| 2026-05-05 12:05 | 39.45009 | 2.57643 | 6250 ft | 262 kts | 207° |
| 2026-05-05 12:05 | 39.43281 | 2.56833 | 7005 ft | 268 kts | 191° |
| 2026-05-05 12:06 | 39.41406 | 2.56977 | 7745 ft | 277 kts | 165° |
| 2026-05-05 12:06 | 39.39722 | 2.58260 | 8496 ft | 288 kts | 137° |
| 2026-05-05 12:06 | 39.38674 | 2.60490 | 9215 ft | 298 kts | 108° |
| 2026-05-05 12:06 | 39.38530 | 2.63160 | 9924 ft | 306 kts | 86° |
| 2026-05-05 12:07 | 39.38726 | 2.65958 | 10295 ft | 323 kts | 86° |
| 2026-05-05 12:07 | 39.38943 | 2.68964 | 10471 ft | 346 kts | 86° |
| 2026-05-05 12:07 | 39.39170 | 2.72120 | 10922 ft | 357 kts | 86° |
| 2026-05-05 12:07 | 39.39397 | 2.75346 | 11529 ft | 362 kts | 87° |
| 2026-05-05 12:08 | 39.39622 | 2.78618 | 12166 ft | 367 kts | 87° |
| 2026-05-05 12:08 | 39.39848 | 2.81939 | 12788 ft | 372 kts | 87° |
| 2026-05-05 12:08 | 39.40070 | 2.85252 | 13397 ft | 378 kts | 87° |
| 2026-05-05 12:08 | 39.40301 | 2.88667 | 13980 ft | 383 kts | 87° |
| 2026-05-05 12:09 | 39.40533 | 2.92117 | 14537 ft | 387 kts | 87° |
| 2026-05-05 12:09 | 39.40768 | 2.95607 | 15087 ft | 391 kts | 87° |
| 2026-05-05 12:09 | 39.41002 | 2.99098 | 15621 ft | 396 kts | 87° |
| 2026-05-05 12:09 | 39.41240 | 3.02665 | 16158 ft | 400 kts | 87° |
| 2026-05-05 12:10 | 39.41477 | 3.06275 | 16682 ft | 404 kts | 87° |
| 2026-05-05 12:10 | 39.41717 | 3.09912 | 17255 ft | 407 kts | 87° |
| 2026-05-05 12:10 | 39.41956 | 3.13585 | 17802 ft | 411 kts | 87° |
| 2026-05-05 12:10 | 39.42114 | 3.16035 | 18161 ft | 414 kts | 87° |
| 2026-05-05 12:11 | 39.42437 | 3.20982 | 18775 ft | 419 kts | 86° |
| 2026-05-05 12:11 | 39.42983 | 3.24719 | 19222 ft | 425 kts | 75° |
| 2026-05-05 12:11 | 39.43625 | 3.27130 | 19511 ft | 429 kts | 68° |
| 2026-05-05 12:11 | 39.44997 | 3.30577 | 19956 ft | 433 kts | 58° |
| 2026-05-05 12:12 | 39.46564 | 3.33948 | 20397 ft | 437 kts | 58° |
| 2026-05-05 12:12 | 39.48648 | 3.38454 | 20987 ft | 443 kts | 59° |
| 2026-05-05 12:12 | 39.49717 | 3.40780 | 21280 ft | 446 kts | 59° |
| 2026-05-05 12:12 | 39.51306 | 3.44248 | 21721 ft | 450 kts | 59° |
| 2026-05-05 12:13 | 39.52890 | 3.47713 | 22159 ft | 454 kts | 59° |
| 2026-05-05 12:13 | 39.54512 | 3.51264 | 22598 ft | 458 kts | 59° |
| 2026-05-05 12:13 | 39.56141 | 3.54833 | 23030 ft | 462 kts | 59° |
| 2026-05-05 12:13 | 39.57789 | 3.58437 | 23438 ft | 466 kts | 59° |
| 2026-05-05 12:14 | 39.59449 | 3.62069 | 23791 ft | 469 kts | 59° |
| 2026-05-05 12:14 | 39.61116 | 3.65726 | 24140 ft | 472 kts | 59° |
| 2026-05-05 12:14 | 39.62769 | 3.69362 | 24484 ft | 475 kts | 59° |
| 2026-05-05 12:14 | 39.64456 | 3.73071 | 24827 ft | 477 kts | 59° |
| 2026-05-05 12:15 | 39.66153 | 3.76798 | 25169 ft | 480 kts | 59° |
| 2026-05-05 12:15 | 39.67852 | 3.80543 | 25500 ft | 482 kts | 59° |
| 2026-05-05 12:15 | 39.69553 | 3.84299 | 25836 ft | 484 kts | 59° |
| 2026-05-05 12:15 | 39.71268 | 3.88087 | 26161 ft | 487 kts | 59° |
| 2026-05-05 12:16 | 39.72965 | 3.91838 | 26477 ft | 489 kts | 59° |
| 2026-05-05 12:16 | 39.74699 | 3.95672 | 26801 ft | 492 kts | 60° |
| 2026-05-05 12:16 | 39.76437 | 3.99517 | 27103 ft | 494 kts | 60° |
| 2026-05-05 12:16 | 39.78179 | 4.03382 | 27406 ft | 496 kts | 60° |
| 2026-05-05 12:17 | 39.79931 | 4.07278 | 27699 ft | 499 kts | 60° |
| 2026-05-05 12:17 | 39.81680 | 4.11136 | 27994 ft | 501 kts | 57° |
| 2026-05-05 12:17 | 39.83761 | 4.14778 | 28303 ft | 503 kts | 47° |
| 2026-05-05 12:17 | 39.86269 | 4.17942 | 28592 ft | 502 kts | 36° |
| 2026-05-05 12:18 | 39.89134 | 4.20536 | 28857 ft | 499 kts | 25° |
| 2026-05-05 12:18 | 39.92257 | 4.22487 | 29135 ft | 495 kts | 15° |
| 2026-05-05 12:18 | 39.95541 | 4.23766 | 29435 ft | 490 kts | 5° |
| 2026-05-05 12:18 | 39.98854 | 4.24558 | 29686 ft | 490 kts | 3° |
| 2026-05-05 12:19 | 40.02224 | 4.25342 | 29933 ft | 492 kts | 4° |
| 2026-05-05 12:19 | 40.05608 | 4.26132 | 30141 ft | 494 kts | 4° |
| 2026-05-05 12:19 | 40.09007 | 4.26926 | 30327 ft | 496 kts | 4° |
| 2026-05-05 12:19 | 40.12413 | 4.27728 | 30529 ft | 498 kts | 4° |
| 2026-05-05 12:20 | 40.15797 | 4.28530 | 30737 ft | 499 kts | 4° |
| 2026-05-05 12:20 | 40.19210 | 4.29343 | 31036 ft | 499 kts | 4° |
| 2026-05-05 12:20 | 40.22636 | 4.30160 | 31320 ft | 498 kts | 4° |
| 2026-05-05 12:20 | 40.26048 | 4.30970 | 31595 ft | 497 kts | 4° |
| 2026-05-05 12:21 | 40.29411 | 4.31766 | 31874 ft | 497 kts | 4° |
| 2026-05-05 12:21 | 40.32817 | 4.32576 | 32142 ft | 496 kts | 4° |
| 2026-05-05 12:21 | 40.36232 | 4.33389 | 32408 ft | 496 kts | 4° |
| 2026-05-05 12:21 | 40.39630 | 4.34196 | 32716 ft | 496 kts | 3° |
| 2026-05-05 12:22 | 40.43031 | 4.35001 | 32944 ft | 497 kts | 3° |
| 2026-05-05 12:22 | 40.46405 | 4.35799 | 33178 ft | 497 kts | 3° |
| 2026-05-05 12:22 | 40.49811 | 4.36608 | 33439 ft | 497 kts | 3° |
| 2026-05-05 12:22 | 40.53216 | 4.37422 | 33707 ft | 496 kts | 3° |
| 2026-05-05 12:23 | 40.56622 | 4.38239 | 33972 ft | 496 kts | 3° |
| 2026-05-05 12:23 | 40.59973 | 4.39041 | 34201 ft | 495 kts | 3° |
| 2026-05-05 12:23 | 40.63364 | 4.39854 | 34437 ft | 494 kts | 3° |
| 2026-05-05 12:23 | 40.66757 | 4.40666 | 34674 ft | 493 kts | 3° |
| 2026-05-05 12:24 | 40.70142 | 4.41473 | 34920 ft | 492 kts | 3° |
| 2026-05-05 12:24 | 40.73513 | 4.42281 | 35141 ft | 492 kts | 3° |
| 2026-05-05 12:24 | 40.76834 | 4.43080 | 35352 ft | 491 kts | 3° |
| 2026-05-05 12:24 | 40.80203 | 4.43892 | 35558 ft | 490 kts | 3° |
| 2026-05-05 12:25 | 40.83553 | 4.44698 | 35778 ft | 489 kts | 3° |
| 2026-05-05 12:25 | 40.86916 | 4.45506 | 35921 ft | 489 kts | 3° |
| 2026-05-05 12:25 | 40.93567 | 4.47108 | 35950 ft | 486 kts | 3° |
| 2026-05-05 12:26 | 41.00240 | 4.48727 | 35950 ft | 486 kts | 3° |
| 2026-05-05 12:26 | 41.06865 | 4.50341 | 35954 ft | 487 kts | 3° |
| 2026-05-05 12:27 | 41.13507 | 4.51967 | 35950 ft | 487 kts | 3° |
| 2026-05-05 12:27 | 41.20191 | 4.53596 | 35950 ft | 487 kts | 3° |
| 2026-05-05 12:28 | 41.26876 | 4.55219 | 35980 ft | 487 kts | 3° |
| 2026-05-05 12:28 | 41.33513 | 4.56846 | 35968 ft | 488 kts | 3° |
| 2026-05-05 12:29 | 41.40207 | 4.58492 | 35946 ft | 488 kts | 3° |
| 2026-05-05 12:29 | 41.46886 | 4.60138 | 35949 ft | 487 kts | 3° |
| 2026-05-05 12:30 | 41.53524 | 4.61772 | 35967 ft | 488 kts | 3° |
| 2026-05-05 12:30 | 41.60214 | 4.63420 | 35958 ft | 488 kts | 3° |
| 2026-05-05 12:31 | 41.66865 | 4.65067 | 35950 ft | 488 kts | 3° |
| 2026-05-05 12:31 | 41.73509 | 4.67079 | 35966 ft | 496 kts | 13° |
| 2026-05-05 12:32 | 41.79844 | 4.71013 | 35956 ft | 503 kts | 21° |
| 2026-05-05 12:32 | 41.86066 | 4.75192 | 35955 ft | 503 kts | 21° |
| 2026-05-05 12:33 | 41.92337 | 4.79394 | 35963 ft | 503 kts | 21° |
| 2026-05-05 12:33 | 41.98583 | 4.83592 | 35959 ft | 503 kts | 21° |
| 2026-05-05 12:34 | 42.04852 | 4.87822 | 35957 ft | 504 kts | 21° |
| 2026-05-05 12:34 | 42.11122 | 4.92062 | 35990 ft | 503 kts | 22° |
| 2026-05-05 12:35 | 42.17346 | 4.96276 | 35952 ft | 503 kts | 21° |
| 2026-05-05 12:35 | 42.23615 | 5.00526 | 35956 ft | 503 kts | 21° |
| 2026-05-05 12:36 | 42.29832 | 5.04760 | 35981 ft | 503 kts | 22° |
| 2026-05-05 12:36 | 42.36081 | 5.09023 | 35974 ft | 502 kts | 22° |
| 2026-05-05 12:37 | 42.42333 | 5.13300 | 35970 ft | 502 kts | 22° |
| 2026-05-05 12:37 | 42.48536 | 5.17543 | 35966 ft | 502 kts | 22° |
| 2026-05-05 12:38 | 42.54773 | 5.21819 | 35990 ft | 501 kts | 22° |
| 2026-05-05 12:38 | 42.60993 | 5.26103 | 35979 ft | 500 kts | 22° |
| 2026-05-05 12:39 | 42.67166 | 5.30370 | 35972 ft | 500 kts | 22° |
| 2026-05-05 12:39 | 42.73367 | 5.34643 | 35936 ft | 499 kts | 22° |
| 2026-05-05 12:40 | 42.79536 | 5.38918 | 35943 ft | 499 kts | 22° |
| 2026-05-05 12:40 | 42.85738 | 5.43228 | 35946 ft | 499 kts | 22° |
| 2026-05-05 12:41 | 42.91934 | 5.47533 | 35972 ft | 499 kts | 23° |
| 2026-05-05 12:41 | 42.98074 | 5.51818 | 35973 ft | 498 kts | 23° |
| 2026-05-05 12:42 | 43.04242 | 5.56131 | 35968 ft | 497 kts | 23° |
| 2026-05-05 12:42 | 43.10412 | 5.60447 | 35983 ft | 497 kts | 23° |
| 2026-05-05 12:43 | 43.16538 | 5.64751 | 35978 ft | 497 kts | 23° |
| 2026-05-05 12:43 | 43.22687 | 5.69082 | 35972 ft | 496 kts | 23° |
| 2026-05-05 12:44 | 43.28830 | 5.73414 | 35961 ft | 496 kts | 23° |
| 2026-05-05 12:44 | 43.34967 | 5.77751 | 35965 ft | 495 kts | 24° |
| 2026-05-05 12:45 | 43.41084 | 5.82085 | 35954 ft | 494 kts | 24° |
| 2026-05-05 12:45 | 43.47166 | 5.86405 | 35949 ft | 494 kts | 24° |
| 2026-05-05 12:46 | 43.53275 | 5.90756 | 35964 ft | 494 kts | 24° |
| 2026-05-05 12:46 | 43.59378 | 5.95114 | 35956 ft | 494 kts | 24° |
| 2026-05-05 12:47 | 43.65454 | 5.99457 | 35952 ft | 494 kts | 24° |
| 2026-05-05 12:47 | 43.71561 | 6.03832 | 35962 ft | 494 kts | 24° |
| 2026-05-05 12:48 | 43.77680 | 6.08226 | 35954 ft | 494 kts | 24° |
| 2026-05-05 12:48 | 43.83794 | 6.12468 | 35944 ft | 493 kts | 22° |
| 2026-05-05 12:49 | 43.89972 | 6.16602 | 35967 ft | 493 kts | 22° |
| 2026-05-05 12:49 | 43.96152 | 6.20772 | 35961 ft | 493 kts | 22° |
| 2026-05-05 12:50 | 44.02281 | 6.24980 | 35960 ft | 494 kts | 23° |
| 2026-05-05 12:50 | 44.08447 | 6.29229 | 35959 ft | 494 kts | 23° |
| 2026-05-05 12:51 | 44.14600 | 6.33451 | 35950 ft | 495 kts | 23° |
| 2026-05-05 12:51 | 44.20800 | 6.37724 | 35945 ft | 496 kts | 23° |
| 2026-05-05 12:52 | 44.26957 | 6.41977 | 35964 ft | 497 kts | 23° |
| 2026-05-05 12:52 | 44.33163 | 6.46281 | 35962 ft | 497 kts | 23° |
| 2026-05-05 12:53 | 44.39341 | 6.50570 | 35946 ft | 496 kts | 23° |
| 2026-05-05 12:53 | 44.45527 | 6.54871 | 35964 ft | 496 kts | 24° |
| 2026-05-05 12:54 | 44.54758 | 6.61310 | 35957 ft | 495 kts | 23° |
| 2026-05-05 12:55 | 44.60932 | 6.65623 | 35951 ft | 495 kts | 23° |
| 2026-05-05 12:55 | 44.67075 | 6.69935 | 35953 ft | 496 kts | 23° |
| 2026-05-05 12:56 | 44.73269 | 6.74304 | 35959 ft | 496 kts | 23° |
| 2026-05-05 12:56 | 44.79655 | 6.77787 | 35974 ft | 488 kts | 7° |
| 2026-05-05 12:57 | 44.86278 | 6.78642 | 35964 ft | 473 kts | 351° |
| 2026-05-05 12:57 | 44.92843 | 6.78199 | 35967 ft | 474 kts | 351° |
| 2026-05-05 12:58 | 44.99454 | 6.77775 | 35968 ft | 474 kts | 352° |
| 2026-05-05 12:58 | 45.06016 | 6.77346 | 35972 ft | 474 kts | 351° |
| 2026-05-05 12:59 | 45.12625 | 6.76902 | 35982 ft | 474 kts | 351° |
| 2026-05-05 12:59 | 45.19186 | 6.76460 | 35992 ft | 474 kts | 351° |
| 2026-05-05 13:00 | 45.29084 | 6.75796 | 35968 ft | 474 kts | 352° |
| 2026-05-05 13:01 | 45.42261 | 6.74920 | 35969 ft | 475 kts | 352° |
| 2026-05-05 13:01 | 45.48876 | 6.74472 | 35963 ft | 475 kts | 352° |
| 2026-05-05 13:02 | 45.55441 | 6.74025 | 35953 ft | 474 kts | 352° |
| 2026-05-05 13:02 | 45.62045 | 6.73574 | 35971 ft | 475 kts | 352° |
| 2026-05-05 13:03 | 45.68657 | 6.73122 | 35951 ft | 475 kts | 352° |
| 2026-05-05 13:03 | 45.75244 | 6.72670 | 35963 ft | 476 kts | 352° |
| 2026-05-05 13:04 | 45.81876 | 6.72212 | 35980 ft | 476 kts | 352° |
| 2026-05-05 13:04 | 45.88449 | 6.71760 | 35971 ft | 475 kts | 352° |
| 2026-05-05 13:05 | 45.95057 | 6.71298 | 35977 ft | 475 kts | 353° |
| 2026-05-05 13:05 | 46.01666 | 6.70852 | 35984 ft | 474 kts | 353° |
| 2026-05-05 13:06 | 46.08255 | 6.70409 | 35965 ft | 473 kts | 353° |
| 2026-05-05 13:06 | 46.13744 | 6.70784 | 35953 ft | 478 kts | 7° |
| 2026-05-05 13:07 | 46.20199 | 6.73315 | 35954 ft | 480 kts | 14° |
| 2026-05-05 13:07 | 46.26577 | 6.76019 | 35948 ft | 480 kts | 14° |
| 2026-05-05 13:08 | 46.32990 | 6.78722 | 35935 ft | 479 kts | 14° |
| 2026-05-05 13:08 | 46.39391 | 6.81439 | 35926 ft | 478 kts | 14° |
| 2026-05-05 13:09 | 46.45737 | 6.84143 | 35925 ft | 478 kts | 14° |
| 2026-05-05 13:09 | 46.52070 | 6.87126 | 35899 ft | 479 kts | 23° |
| 2026-05-05 13:10 | 46.57656 | 6.92392 | 35906 ft | 480 kts | 43° |
| 2026-05-05 13:10 | 46.62039 | 6.99648 | 35903 ft | 479 kts | 52° |
| 2026-05-05 13:11 | 46.66229 | 7.07207 | 35902 ft | 479 kts | 52° |
| 2026-05-05 13:11 | 46.70420 | 7.14777 | 35904 ft | 480 kts | 52° |
| 2026-05-05 13:12 | 46.74587 | 7.22330 | 35910 ft | 480 kts | 52° |
| 2026-05-05 13:12 | 46.78766 | 7.29930 | 35914 ft | 478 kts | 52° |
| 2026-05-05 13:13 | 46.82925 | 7.37515 | 35881 ft | 477 kts | 52° |
| 2026-05-05 13:13 | 46.87051 | 7.45059 | 35887 ft | 477 kts | 52° |
| 2026-05-05 13:14 | 46.91192 | 7.52665 | 35885 ft | 477 kts | 52° |
| 2026-05-05 13:14 | 46.95301 | 7.60232 | 35899 ft | 477 kts | 53° |
| 2026-05-05 13:15 | 46.99432 | 7.67851 | 35904 ft | 475 kts | 53° |
| 2026-05-05 13:15 | 47.03508 | 7.75395 | 35900 ft | 474 kts | 53° |
| 2026-05-05 13:16 | 47.07601 | 7.83017 | 35895 ft | 473 kts | 53° |
| 2026-05-05 13:16 | 47.11650 | 7.90578 | 35903 ft | 473 kts | 53° |
| 2026-05-05 13:17 | 47.15412 | 7.98461 | 35902 ft | 470 kts | 60° |
| 2026-05-05 13:17 | 47.18894 | 8.06615 | 35899 ft | 469 kts | 60° |
| 2026-05-05 13:18 | 47.22358 | 8.14744 | 35894 ft | 469 kts | 60° |
| 2026-05-05 13:18 | 47.25787 | 8.22842 | 35888 ft | 468 kts | 60° |
| 2026-05-05 13:19 | 47.29395 | 8.30853 | 35860 ft | 470 kts | 51° |
| 2026-05-05 13:19 | 47.34277 | 8.37262 | 35870 ft | 471 kts | 33° |
| 2026-05-05 13:20 | 47.39766 | 8.42518 | 35870 ft | 472 kts | 33° |
| 2026-05-05 13:20 | 47.45257 | 8.47833 | 35886 ft | 472 kts | 33° |
| 2026-05-05 13:21 | 47.50709 | 8.53153 | 35891 ft | 472 kts | 34° |
| 2026-05-05 13:21 | 47.56199 | 8.58495 | 35898 ft | 471 kts | 34° |
| 2026-05-05 13:22 | 47.61686 | 8.63849 | 35893 ft | 470 kts | 34° |
| 2026-05-05 13:22 | 47.67121 | 8.69164 | 35887 ft | 470 kts | 34° |
| 2026-05-05 13:23 | 47.72586 | 8.74528 | 35889 ft | 469 kts | 34° |
| 2026-05-05 13:23 | 47.78009 | 8.79862 | 35879 ft | 469 kts | 34° |
| 2026-05-05 13:24 | 47.83447 | 8.85228 | 35873 ft | 468 kts | 34° |
| 2026-05-05 13:24 | 47.88882 | 8.90591 | 35866 ft | 468 kts | 35° |
| 2026-05-05 13:25 | 47.94312 | 8.95971 | 35849 ft | 468 kts | 34° |
| 2026-05-05 13:25 | 47.99700 | 9.01321 | 35848 ft | 467 kts | 34° |
| 2026-05-05 13:26 | 48.05119 | 9.06718 | 35854 ft | 468 kts | 35° |
| 2026-05-05 13:26 | 48.10537 | 9.12139 | 35854 ft | 467 kts | 35° |
| 2026-05-05 13:27 | 48.16134 | 9.16976 | 35849 ft | 468 kts | 22° |
| 2026-05-05 13:27 | 48.22438 | 9.19251 | 35845 ft | 467 kts | 5° |
| 2026-05-05 13:28 | 48.28909 | 9.20320 | 35840 ft | 467 kts | 6° |
| 2026-05-05 13:28 | 48.35327 | 9.21407 | 35840 ft | 467 kts | 6° |
| 2026-05-05 13:29 | 48.41808 | 9.22513 | 35838 ft | 468 kts | 6° |
| 2026-05-05 13:29 | 48.48285 | 9.23612 | 35836 ft | 468 kts | 6° |
| 2026-05-05 13:30 | 48.54731 | 9.24708 | 35847 ft | 468 kts | 6° |
| 2026-05-05 13:30 | 48.61211 | 9.25808 | 35852 ft | 468 kts | 6° |
| 2026-05-05 13:31 | 48.67662 | 9.26866 | 35854 ft | 468 kts | 5° |
| 2026-05-05 13:31 | 48.74153 | 9.27824 | 35852 ft | 468 kts | 5° |
| 2026-05-05 13:32 | 48.80649 | 9.28775 | 35851 ft | 468 kts | 5° |
| 2026-05-05 13:32 | 48.87104 | 9.29769 | 35847 ft | 468 kts | 5° |
| 2026-05-05 13:33 | 48.93595 | 9.30787 | 35843 ft | 468 kts | 5° |
| 2026-05-05 13:33 | 49.00054 | 9.31781 | 35834 ft | 468 kts | 5° |
| 2026-05-05 13:34 | 49.06552 | 9.32778 | 35829 ft | 468 kts | 5° |
| 2026-05-05 13:34 | 49.13048 | 9.33786 | 35828 ft | 468 kts | 5° |
| 2026-05-05 13:35 | 49.19497 | 9.34789 | 35825 ft | 468 kts | 5° |
| 2026-05-05 13:35 | 49.25983 | 9.35804 | 35826 ft | 468 kts | 5° |
| 2026-05-05 13:36 | 49.32469 | 9.36826 | 35838 ft | 469 kts | 5° |
| 2026-05-05 13:36 | 49.38940 | 9.37845 | 35834 ft | 469 kts | 5° |
| 2026-05-05 13:37 | 49.45447 | 9.38861 | 35817 ft | 469 kts | 5° |
| 2026-05-05 13:37 | 49.51928 | 9.39879 | 35814 ft | 470 kts | 5° |
| 2026-05-05 13:38 | 49.58451 | 9.40909 | 35814 ft | 470 kts | 5° |
| 2026-05-05 13:38 | 49.64970 | 9.41951 | 35816 ft | 470 kts | 5° |
| 2026-05-05 13:39 | 49.71433 | 9.42981 | 35813 ft | 470 kts | 5° |
| 2026-05-05 13:39 | 49.77918 | 9.44009 | 35811 ft | 470 kts | 5° |
| 2026-05-05 13:40 | 49.84427 | 9.45050 | 35817 ft | 470 kts | 5° |
| 2026-05-05 13:40 | 49.90911 | 9.46080 | 35814 ft | 470 kts | 5° |
| 2026-05-05 13:41 | 49.97432 | 9.47130 | 35814 ft | 470 kts | 5° |
| 2026-05-05 13:41 | 50.03942 | 9.48179 | 35819 ft | 470 kts | 4° |
| 2026-05-05 13:42 | 50.10473 | 9.49258 | 35815 ft | 471 kts | 5° |
| 2026-05-05 13:42 | 50.16954 | 9.50414 | 35814 ft | 471 kts | 5° |
| 2026-05-05 13:43 | 50.23486 | 9.51590 | 35808 ft | 472 kts | 5° |
| 2026-05-05 13:43 | 50.29981 | 9.52748 | 35812 ft | 472 kts | 4° |
| 2026-05-05 13:44 | 50.36522 | 9.53912 | 35813 ft | 472 kts | 4° |
| 2026-05-05 13:44 | 50.43008 | 9.55070 | 35811 ft | 472 kts | 4° |
| 2026-05-05 13:45 | 50.49532 | 9.56241 | 35817 ft | 471 kts | 4° |
| 2026-05-05 13:45 | 50.56050 | 9.57398 | 35821 ft | 470 kts | 4° |
| 2026-05-05 13:46 | 50.62554 | 9.58571 | 35822 ft | 470 kts | 4° |
| 2026-05-05 13:46 | 50.69048 | 9.59740 | 35819 ft | 469 kts | 4° |
| 2026-05-05 13:47 | 50.75508 | 9.60902 | 35818 ft | 469 kts | 4° |
| 2026-05-05 13:47 | 50.82018 | 9.62084 | 35816 ft | 469 kts | 4° |
| 2026-05-05 13:48 | 50.88474 | 9.63252 | 35818 ft | 470 kts | 4° |
| 2026-05-05 13:48 | 50.94970 | 9.64433 | 35824 ft | 470 kts | 4° |
| 2026-05-05 13:49 | 51.01475 | 9.65624 | 35823 ft | 469 kts | 4° |
| 2026-05-05 13:49 | 51.07936 | 9.66810 | 35820 ft | 469 kts | 4° |
| 2026-05-05 13:50 | 51.14442 | 9.68004 | 35823 ft | 469 kts | 4° |
| 2026-05-05 13:50 | 51.20933 | 9.69199 | 35838 ft | 469 kts | 3° |
| 2026-05-05 13:51 | 51.27400 | 9.70297 | 35828 ft | 468 kts | 2° |
| 2026-05-05 13:51 | 51.33900 | 9.71308 | 35846 ft | 468 kts | 2° |
| 2026-05-05 13:52 | 51.40357 | 9.72322 | 35847 ft | 468 kts | 2° |
| 2026-05-05 13:52 | 51.46854 | 9.73377 | 35861 ft | 468 kts | 2° |
| 2026-05-05 13:53 | 51.53304 | 9.74527 | 35860 ft | 468 kts | 2° |
| 2026-05-05 13:53 | 51.59741 | 9.75781 | 35855 ft | 468 kts | 3° |
| 2026-05-05 13:54 | 51.66203 | 9.77039 | 35865 ft | 467 kts | 2° |
| 2026-05-05 13:54 | 51.72657 | 9.78274 | 35868 ft | 466 kts | 2° |
| 2026-05-05 13:55 | 51.79106 | 9.79498 | 35874 ft | 466 kts | 2° |
| 2026-05-05 13:55 | 51.85548 | 9.80724 | 35869 ft | 465 kts | 2° |
| 2026-05-05 13:56 | 51.88727 | 9.81330 | 35595 ft | 466 kts | 2° |
| 2026-05-05 13:56 | 51.91948 | 9.81952 | 35052 ft | 463 kts | 2° |
| 2026-05-05 13:56 | 51.95144 | 9.82577 | 34551 ft | 459 kts | 2° |
| 2026-05-05 13:56 | 51.98313 | 9.83198 | 34042 ft | 456 kts | 2° |
| 2026-05-05 13:57 | 52.01458 | 9.83816 | 33491 ft | 454 kts | 2° |
| 2026-05-05 13:57 | 52.04543 | 9.84423 | 33004 ft | 449 kts | 2° |
| 2026-05-05 13:57 | 52.07642 | 9.85028 | 32521 ft | 445 kts | 2° |
| 2026-05-05 13:57 | 52.10708 | 9.85624 | 32033 ft | 442 kts | 2° |
| 2026-05-05 13:58 | 52.13758 | 9.86215 | 31553 ft | 438 kts | 2° |
| 2026-05-05 13:58 | 52.16777 | 9.86801 | 31084 ft | 435 kts | 2° |
| 2026-05-05 13:58 | 52.19750 | 9.87381 | 30620 ft | 432 kts | 3° |
| 2026-05-05 13:58 | 52.22734 | 9.87965 | 30167 ft | 429 kts | 3° |
| 2026-05-05 13:59 | 52.27603 | 9.89523 | 29384 ft | 427 kts | 12° |
| 2026-05-05 13:59 | 52.31377 | 9.91189 | 28806 ft | 421 kts | 12° |
| 2026-05-05 14:00 | 52.36964 | 9.93652 | 27975 ft | 412 kts | 12° |
| 2026-05-05 14:00 | 52.38833 | 9.94477 | 27692 ft | 409 kts | 12° |
| 2026-05-05 14:00 | 52.41533 | 9.95671 | 27282 ft | 405 kts | 12° |
| 2026-05-05 14:00 | 52.44241 | 9.96869 | 26893 ft | 401 kts | 12° |
| 2026-05-05 14:01 | 52.46934 | 9.98057 | 26478 ft | 398 kts | 12° |
| 2026-05-05 14:01 | 52.49601 | 9.99236 | 26059 ft | 395 kts | 12° |
| 2026-05-05 14:01 | 52.52249 | 10.00410 | 25635 ft | 392 kts | 12° |
| 2026-05-05 14:01 | 52.54843 | 10.01557 | 25206 ft | 389 kts | 12° |
| 2026-05-05 14:02 | 52.57446 | 10.02709 | 24783 ft | 387 kts | 12° |
| 2026-05-05 14:02 | 52.60038 | 10.03861 | 24337 ft | 385 kts | 12° |
| 2026-05-05 14:02 | 52.62623 | 10.05014 | 23888 ft | 383 kts | 12° |
| 2026-05-05 14:02 | 52.65197 | 10.06168 | 23431 ft | 382 kts | 12° |
| 2026-05-05 14:03 | 52.67760 | 10.07319 | 22939 ft | 379 kts | 12° |
| 2026-05-05 14:03 | 52.70299 | 10.08460 | 22502 ft | 376 kts | 12° |
| 2026-05-05 14:03 | 52.72814 | 10.09595 | 22057 ft | 372 kts | 12° |
| 2026-05-05 14:03 | 52.75307 | 10.10721 | 21626 ft | 369 kts | 12° |
| 2026-05-05 14:04 | 52.77764 | 10.11639 | 21220 ft | 364 kts | 4° |
| 2026-05-05 14:04 | 52.80274 | 10.11878 | 20809 ft | 359 kts | 358° |
| 2026-05-05 14:04 | 52.82767 | 10.11945 | 20406 ft | 356 kts | 358° |
| 2026-05-05 14:04 | 52.85248 | 10.12024 | 19990 ft | 354 kts | 358° |
| 2026-05-05 14:05 | 52.87679 | 10.12104 | 19580 ft | 352 kts | 358° |
| 2026-05-05 14:05 | 52.90133 | 10.12185 | 19178 ft | 350 kts | 358° |
| 2026-05-05 14:05 | 52.92569 | 10.12265 | 18776 ft | 349 kts | 358° |
| 2026-05-05 14:05 | 52.94991 | 10.12345 | 18376 ft | 347 kts | 358° |
| 2026-05-05 14:06 | 52.97409 | 10.12424 | 17946 ft | 346 kts | 358° |
| 2026-05-05 14:06 | 52.99646 | 10.12500 | 17568 ft | 343 kts | 358° |
| 2026-05-05 14:06 | 53.01938 | 10.12142 | 17432 ft | 328 kts | 342° |
| 2026-05-05 14:06 | 53.03982 | 10.10718 | 17368 ft | 311 kts | 327° |
| 2026-05-05 14:07 | 53.05872 | 10.08929 | 16837 ft | 314 kts | 328° |
| 2026-05-05 14:07 | 53.07780 | 10.07120 | 16368 ft | 316 kts | 328° |
| 2026-05-05 14:07 | 53.09692 | 10.05305 | 15978 ft | 315 kts | 328° |
| 2026-05-05 14:07 | 53.11567 | 10.03522 | 15625 ft | 313 kts | 328° |
| 2026-05-05 14:08 | 53.13457 | 10.01720 | 15277 ft | 312 kts | 328° |
| 2026-05-05 14:08 | 53.15333 | 9.99931 | 14939 ft | 310 kts | 328° |
| 2026-05-05 14:08 | 53.17209 | 9.98141 | 14596 ft | 309 kts | 328° |
| 2026-05-05 14:08 | 53.19072 | 9.96363 | 14257 ft | 307 kts | 328° |
| 2026-05-05 14:09 | 53.20915 | 9.94598 | 13638 ft | 315 kts | 328° |
| 2026-05-05 14:09 | 53.22868 | 9.92720 | 12736 ft | 329 kts | 328° |
| 2026-05-05 14:09 | 53.24859 | 9.90804 | 12009 ft | 329 kts | 328° |
| 2026-05-05 14:09 | 53.26829 | 9.88913 | 11249 ft | 324 kts | 328° |
| 2026-05-05 14:10 | 53.28773 | 9.87046 | 10507 ft | 319 kts | 328° |
| 2026-05-05 14:10 | 53.30688 | 9.85206 | 9754 ft | 316 kts | 328° |
| 2026-05-05 14:10 | 53.32561 | 9.83406 | 8942 ft | 312 kts | 328° |
| 2026-05-05 14:10 | 53.34368 | 9.81429 | 8142 ft | 305 kts | 314° |
| 2026-05-05 14:11 | 53.35726 | 9.78752 | 7369 ft | 299 kts | 305° |
| 2026-05-05 14:11 | 53.36942 | 9.75942 | 6613 ft | 295 kts | 304° |
| 2026-05-05 14:11 | 53.38103 | 9.73178 | 5904 ft | 290 kts | 304° |
| 2026-05-05 14:11 | 53.39232 | 9.70460 | 5456 ft | 276 kts | 304° |
| 2026-05-05 14:12 | 53.40301 | 9.67866 | 5137 ft | 266 kts | 304° |
| 2026-05-05 14:12 | 53.41330 | 9.65376 | 4860 ft | 252 kts | 307° |
| 2026-05-05 14:12 | 53.42644 | 9.63543 | 4616 ft | 247 kts | 338° |
| 2026-05-05 14:12 | 53.44304 | 9.63179 | 4514 ft | 246 kts | 10° |
| 2026-05-05 14:13 | 53.45846 | 9.64381 | 4467 ft | 249 kts | 41° |
| 2026-05-05 14:13 | 53.47010 | 9.66546 | 4421 ft | 250 kts | 50° |
| 2026-05-05 14:13 | 53.48106 | 9.68794 | 4299 ft | 246 kts | 49° |
| 2026-05-05 14:13 | 53.49188 | 9.70977 | 4019 ft | 239 kts | 49° |
| 2026-05-05 14:14 | 53.50235 | 9.73073 | 3722 ft | 230 kts | 49° |
| 2026-05-05 14:14 | 53.51259 | 9.75120 | 3411 ft | 228 kts | 49° |
| 2026-05-05 14:14 | 53.52263 | 9.77131 | 3107 ft | 221 kts | 49° |
| 2026-05-05 14:14 | 53.53231 | 9.79073 | 2806 ft | 210 kts | 50° |
| 2026-05-05 14:15 | 53.54117 | 9.80850 | 2534 ft | 195 kts | 50° |
| 2026-05-05 14:15 | 53.54969 | 9.82561 | 2285 ft | 186 kts | 50° |
| 2026-05-05 14:15 | 53.55762 | 9.84154 | 2060 ft | 171 kts | 50° |
| 2026-05-05 14:15 | 53.56503 | 9.85643 | 1804 ft | 161 kts | 50° |
| 2026-05-05 14:16 | 53.57198 | 9.87041 | 1578 ft | 149 kts | 50° |
| 2026-05-05 14:16 | 53.57848 | 9.88350 | 1388 ft | 143 kts | 50° |
| 2026-05-05 14:16 | 53.58472 | 9.89606 | 1198 ft | 141 kts | 50° |
| 2026-05-05 14:16 | 53.59101 | 9.90874 | 975 ft | 140 kts | 50° |
| 2026-05-05 14:17 | 53.59721 | 9.92125 | 781 ft | 137 kts | 51° |
| 2026-05-05 14:17 | 53.60339 | 9.93371 | 589 ft | 140 kts | 51° |
| 2026-05-05 14:17 | 53.60965 | 9.94638 | 404 ft | 140 kts | 51° |
| 2026-05-05 14:17 | 53.61589 | 9.95890 | 203 ft | 138 kts | 52° |
| 2026-05-05 14:18 | 53.62193 | 9.97115 | 53 ft | 136 kts | 52° |
| 2026-05-05 14:18 | 53.62723 | 9.98196 | 50 ft | 98 kts | 50° |
| 2026-05-05 14:18 | 53.63050 | 9.98851 | 49 ft | 48 kts | 50° |
| 2026-05-05 14:18 | 53.63236 | 9.99229 | 53 ft | 39 kts | 50° |
| 2026-05-05 14:19 | 53.63402 | 9.99563 | 50 ft | 36 kts | 50° |
| 2026-05-05 14:19 | 53.63531 | 9.99821 | 51 ft | 27 kts | 50° |
| 2026-05-05 14:19 | 53.63602 | 9.99981 | 52 ft | 10 kts | 70° |
| 2026-05-05 14:19 | 53.63562 | 10.00089 | 51 ft | 11 kts | 143° |
| 2026-05-05 14:20 | 53.63510 | 10.00157 | 51 ft | 6 kts | 141° |
| 2026-05-05 14:20 | 53.63479 | 10.00199 | 51 ft | 5 kts | 141° |
| 2026-05-05 14:20 | 53.63452 | 10.00218 | 51 ft | 4 kts | 168° |
| 2026-05-05 14:20 | 53.63430 | 10.00222 | 49 ft | 3 kts | 174° |
| 2026-05-05 14:21 | 53.63414 | 10.00224 | 51 ft | 2 kts | 175° |
| 2026-05-05 14:21 | 53.63401 | 10.00226 | 51 ft | 3 kts | 175° |
| 2026-05-05 14:21 | 53.63371 | 10.00229 | 51 ft | 4 kts | 176° |
| 2026-05-05 14:21 | 53.63344 | 10.00232 | 49 ft | 4 kts | 176° |
| 2026-05-05 14:22 | 53.63323 | 10.00235 | 51 ft | 3 kts | 176° |
| 2026-05-05 14:22 | 53.63302 | 10.00238 | 51 ft | 3 kts | 172° |
| 2026-05-05 14:22 | 53.63291 | 10.00260 | 51 ft | 3 kts | 114° |
| 2026-05-05 14:22 | 53.63291 | 10.00298 | 51 ft | 3 kts | 86° |
| 2026-05-05 14:23 | 53.63293 | 10.00330 | 51 ft | 2 kts | 85° |
| 2026-05-05 14:23 | 53.63294 | 10.00350 | 51 ft | 1 kts | 86° |
| 2026-05-05 14:23 | 53.63294 | 10.00354 | 51 ft | 0 kts | 86° |